createdAt,value
2023-01-10T00:00:02.891Z,1001.82
2023-01-10T00:01:02.952Z,1001.88
2023-01-10T00:02:03.161Z,1001.92
2023-01-10T00:03:03.002Z,1001.88
2023-01-10T00:04:02.751Z,1001.90
2023-01-10T00:05:02.852Z,1001.92
2023-01-10T00:06:02.984Z,1001.94
2023-01-10T00:07:02.040Z,1002.04
2023-01-10T00:08:02.282Z,1002.00
2023-01-10T00:09:01.987Z,1002.05
2023-01-10T00:10:02.117Z,1002.09
2023-01-10T00:11:02.285Z,1002.10
2023-01-10T00:12:02.619Z,1002.12
2023-01-10T00:13:02.173Z,1002.19
2023-01-10T00:14:02.355Z,1002.20
2023-01-10T00:15:02.146Z,1002.18
2023-01-10T00:16:02.719Z,1002.24
2023-01-10T00:17:02.776Z,1002.25
2023-01-10T00:18:02.580Z,1002.26
2023-01-10T00:19:02.469Z,1002.31
2023-01-10T00:20:02.939Z,1002.33
2023-01-10T00:21:02.514Z,1002.42
2023-01-10T00:22:02.621Z,1002.39
2023-01-10T00:23:02.035Z,1002.42
2023-01-10T00:24:02.224Z,1002.52
2023-01-10T00:25:02.445Z,1002.50
2023-01-10T00:26:02.255Z,1002.58
2023-01-10T00:27:02.344Z,1002.59
2023-01-10T00:28:02.449Z,1002.61
2023-01-10T00:29:02.088Z,1002.63
2023-01-10T00:30:02.475Z,1002.63
2023-01-10T00:31:02.163Z,1002.64
2023-01-10T00:32:01.557Z,1002.73
2023-01-10T00:33:01.597Z,1002.74
2023-01-10T00:34:01.993Z,1002.76
2023-01-10T00:35:01.637Z,1002.79
2023-01-10T00:36:01.838Z,1002.80
2023-01-10T00:37:01.810Z,1002.81
2023-01-10T00:38:01.977Z,1002.83
2023-01-10T00:39:01.909Z,1002.85
2023-01-10T00:40:01.574Z,1002.88
2023-01-10T00:41:01.889Z,1002.91
2023-01-10T00:42:02.210Z,1002.95
2023-01-10T00:43:02.609Z,1002.93
2023-01-10T00:44:02.806Z,1002.98
2023-01-10T00:45:02.625Z,1003.00
2023-01-10T00:46:02.689Z,1003.02
2023-01-10T00:47:01.749Z,1003.07
2023-01-10T00:48:01.935Z,1003.06
2023-01-10T00:49:02.278Z,1003.09
2023-01-10T00:50:01.771Z,1003.16
2023-01-10T00:51:01.744Z,1003.21
2023-01-10T00:52:02.175Z,1003.20
2023-01-10T00:53:02.399Z,1003.19
2023-01-10T00:54:02.340Z,1003.20
2023-01-10T00:55:02.200Z,1003.27
2023-01-10T00:56:02.719Z,1003.21
2023-01-10T00:57:02.248Z,1003.30
2023-01-10T00:58:02.670Z,1003.28
2023-01-10T00:59:02.079Z,1003.30
2023-01-10T01:00:02.442Z,1003.30
2023-01-10T01:01:02.380Z,1003.36
2023-01-10T01:02:02.511Z,1003.38
2023-01-10T01:03:02.976Z,1003.39
2023-01-10T01:04:02.933Z,1003.42
2023-01-10T01:05:02.731Z,1003.42
2023-01-10T01:06:02.438Z,1003.42
2023-01-10T01:07:02.754Z,1003.46
2023-01-10T01:08:02.959Z,1003.48
2023-01-10T01:09:03.044Z,1003.47
2023-01-10T01:10:02.725Z,1003.63
2023-01-10T01:11:03.004Z,1003.58
2023-01-10T01:12:02.532Z,1003.64
2023-01-10T01:13:02.982Z,1003.60
2023-01-10T01:14:02.683Z,1003.61
2023-01-10T01:15:02.571Z,1003.69
2023-01-10T01:16:02.820Z,1003.67
2023-01-10T01:17:02.987Z,1003.75
2023-01-10T01:18:02.990Z,1003.69
2023-01-10T01:19:03.378Z,1003.79
2023-01-10T01:20:03.153Z,1003.78
2023-01-10T01:21:03.466Z,1003.71
2023-01-10T01:22:03.401Z,1003.78
2023-01-10T01:23:03.195Z,1003.80
2023-01-10T01:24:03.253Z,1003.81
2023-01-10T01:25:03.112Z,1003.88
2023-01-10T01:26:03.118Z,1003.90
2023-01-10T01:27:02.663Z,1003.90
2023-01-10T01:28:02.638Z,1003.91
2023-01-10T01:29:02.676Z,1003.94
2023-01-10T01:30:02.511Z,1003.88
2023-01-10T01:31:02.859Z,1003.93
2023-01-10T01:32:03.331Z,1003.97
2023-01-10T01:33:03.562Z,1003.98
2023-01-10T01:34:03.120Z,1004.00
2023-01-10T01:35:03.188Z,1003.98
2023-01-10T01:36:03.069Z,1004.00
2023-01-10T01:37:02.505Z,1004.04
2023-01-10T01:38:02.700Z,1004.02
2023-01-10T01:39:02.500Z,1004.08
2023-01-10T01:40:02.881Z,1004.06
2023-01-10T01:41:02.850Z,1004.11
2023-01-10T01:42:03.114Z,1004.13
2023-01-10T01:43:02.876Z,1004.16
2023-01-10T01:44:02.856Z,1004.17
2023-01-10T01:45:03.065Z,1004.19
2023-01-10T01:46:03.242Z,1004.19
2023-01-10T01:47:02.188Z,1004.22
2023-01-10T01:48:02.717Z,1004.24
2023-01-10T01:49:02.617Z,1004.20
2023-01-10T01:50:02.381Z,1004.19
2023-01-10T01:51:02.701Z,1004.26
2023-01-10T01:52:02.662Z,1004.20
2023-01-10T01:53:02.284Z,1004.16
2023-01-10T01:54:02.288Z,1004.20
2023-01-10T01:55:02.747Z,1004.25
2023-01-10T01:56:02.217Z,1004.28
2023-01-10T01:57:02.915Z,1004.25
2023-01-10T01:58:02.823Z,1004.32
2023-01-10T01:59:02.805Z,1004.27
2023-01-10T02:00:02.689Z,1004.35
2023-01-10T02:01:02.616Z,1004.35
2023-01-10T02:02:01.761Z,1004.39
2023-01-10T02:03:03.156Z,1004.40
2023-01-10T02:04:01.738Z,1004.40
2023-01-10T02:05:01.704Z,1004.43
2023-01-10T02:06:01.969Z,1004.42
2023-01-10T02:07:02.681Z,1004.46
2023-01-10T02:08:02.502Z,1004.46
2023-01-10T02:09:02.103Z,1004.47
2023-01-10T02:10:02.245Z,1004.43
2023-01-10T02:11:02.622Z,1004.45
2023-01-10T02:12:02.988Z,1004.41
2023-01-10T02:13:02.540Z,1004.51
2023-01-10T02:14:02.544Z,1004.47
2023-01-10T02:15:02.659Z,1004.42
2023-01-10T02:16:02.905Z,1004.48
2023-01-10T02:17:02.340Z,1004.46
2023-01-10T02:18:01.978Z,1004.47
2023-01-10T02:19:02.257Z,1004.47
2023-01-10T02:20:02.277Z,1004.50
2023-01-10T02:21:01.845Z,1004.45
2023-01-10T02:22:02.117Z,1004.44
2023-01-10T02:23:02.442Z,1004.46
2023-01-10T02:24:02.293Z,1004.42
2023-01-10T02:25:02.012Z,1004.44
2023-01-10T02:26:01.870Z,1004.51
2023-01-10T02:27:01.853Z,1004.47
2023-01-10T02:28:01.709Z,1004.48
2023-01-10T02:29:01.940Z,1004.53
2023-01-10T02:30:01.968Z,1004.57
2023-01-10T02:31:01.609Z,1004.64
2023-01-10T02:32:01.802Z,1004.66
2023-01-10T02:33:05.427Z,1004.67
2023-01-10T02:34:02.323Z,1004.72
2023-01-10T02:35:01.994Z,1004.78
2023-01-10T02:36:01.915Z,1004.77
2023-01-10T02:37:01.963Z,1004.80
2023-01-10T02:38:02.113Z,1004.84
2023-01-10T02:39:01.574Z,1004.88
2023-01-10T02:40:01.945Z,1004.83
2023-01-10T02:41:01.495Z,1004.84
2023-01-10T02:42:02.630Z,1004.90
2023-01-10T02:43:02.366Z,1004.90
2023-01-10T02:44:02.710Z,1004.87
2023-01-10T02:45:02.304Z,1004.90
2023-01-10T02:46:02.105Z,1004.79
2023-01-10T02:47:01.751Z,1004.88
2023-01-10T02:48:02.073Z,1004.84
2023-01-10T02:49:02.050Z,1004.78
2023-01-10T02:50:02.008Z,1004.75
2023-01-10T02:51:02.135Z,1004.79
2023-01-10T02:52:02.620Z,1004.83
2023-01-10T02:53:02.369Z,1004.82
2023-01-10T02:54:02.159Z,1004.89
2023-01-10T02:55:02.016Z,1004.88
2023-01-10T02:56:02.524Z,1004.86
2023-01-10T02:57:02.392Z,1004.92
2023-01-10T02:58:02.815Z,1004.93
2023-01-10T02:59:02.323Z,1004.91
2023-01-10T03:00:02.297Z,1004.89
2023-01-10T03:01:02.921Z,1004.92
2023-01-10T03:02:03.053Z,1004.92
2023-01-10T03:03:02.378Z,1004.97
2023-01-10T03:04:02.905Z,1005.01
2023-01-10T03:05:02.745Z,1004.93
2023-01-10T03:06:02.619Z,1004.97
2023-01-10T03:07:03.104Z,1005.01
2023-01-10T03:08:03.427Z,1004.95
2023-01-10T03:09:03.504Z,1004.96
2023-01-10T03:10:03.492Z,1004.98
2023-01-10T03:11:03.564Z,1004.92
2023-01-10T03:12:03.116Z,1005.05
2023-01-10T03:13:02.731Z,1005.01
2023-01-10T03:14:03.080Z,1005.08
2023-01-10T03:15:02.513Z,1005.09
2023-01-10T03:16:03.010Z,1005.09
2023-01-10T03:17:04.761Z,1005.09
2023-01-10T03:18:02.930Z,1005.13
2023-01-10T03:19:03.320Z,1005.05
2023-01-10T03:20:03.157Z,1005.13
2023-01-10T03:21:02.792Z,1005.16
2023-01-10T03:22:02.674Z,1005.10
2023-01-10T03:23:02.576Z,1005.14
2023-01-10T03:24:02.850Z,1005.18
2023-01-10T03:25:02.693Z,1005.17
2023-01-10T03:26:02.326Z,1005.21
2023-01-10T03:27:03.159Z,1005.22
2023-01-10T03:28:02.762Z,1005.28
2023-01-10T03:29:02.977Z,1005.30
2023-01-10T03:30:02.747Z,1005.37
2023-01-10T03:31:03.267Z,1005.30
2023-01-10T03:32:02.865Z,1005.36
2023-01-10T03:33:03.226Z,1005.39
2023-01-10T03:34:02.877Z,1005.35
2023-01-10T03:35:03.237Z,1005.34
2023-01-10T03:36:03.355Z,1005.41
2023-01-10T03:37:02.795Z,1005.37
2023-01-10T03:38:02.982Z,1005.48
2023-01-10T03:39:02.484Z,1005.48
2023-01-10T03:40:02.955Z,1005.45
2023-01-10T03:41:02.714Z,1005.51
2023-01-10T03:42:02.901Z,1005.54
2023-01-10T03:43:03.215Z,1005.50
2023-01-10T03:44:03.089Z,1005.58
2023-01-10T03:45:03.186Z,1005.59
2023-01-10T03:46:03.402Z,1005.55
2023-01-10T03:47:03.483Z,1005.55
2023-01-10T03:48:02.957Z,1005.49
2023-01-10T03:49:03.284Z,1005.54
2023-01-10T03:50:02.956Z,1005.55
2023-01-10T03:51:03.474Z,1005.61
2023-01-10T03:52:02.523Z,1005.66
2023-01-10T03:53:02.757Z,1005.60
2023-01-10T03:54:02.545Z,1005.63
2023-01-10T03:55:02.419Z,1005.59
2023-01-10T03:56:02.363Z,1005.65
2023-01-10T03:57:03.010Z,1005.63
2023-01-10T03:58:02.645Z,1005.70
2023-01-10T03:59:03.069Z,1005.66
2023-01-10T04:00:02.939Z,1005.68
2023-01-10T04:01:02.910Z,1005.65
2023-01-10T04:02:02.533Z,1005.79
2023-01-10T04:03:02.137Z,1005.82
2023-01-10T04:04:02.480Z,1005.82
2023-01-10T04:05:02.234Z,1005.86
2023-01-10T04:06:02.207Z,1005.91
2023-01-10T04:07:02.629Z,1005.88
2023-01-10T04:08:02.790Z,1005.97
2023-01-10T04:09:02.859Z,1005.98
2023-01-10T04:10:02.598Z,1006.03
2023-01-10T04:11:02.750Z,1006.05
2023-01-10T04:12:03.046Z,1006.01
2023-01-10T04:13:02.468Z,1006.09
2023-01-10T04:14:02.885Z,1006.11
2023-01-10T04:15:03.171Z,1006.10
2023-01-10T04:16:02.830Z,1006.12
2023-01-10T04:17:02.489Z,1006.14
2023-01-10T04:18:02.373Z,1006.16
2023-01-10T04:19:02.324Z,1006.17
2023-01-10T04:20:02.232Z,1006.22
2023-01-10T04:21:02.156Z,1006.21
2023-01-10T04:22:02.413Z,1006.23
2023-01-10T04:23:02.271Z,1006.21
2023-01-10T04:24:02.283Z,1006.18
2023-01-10T04:25:02.291Z,1006.23
2023-01-10T04:26:02.549Z,1006.22
2023-01-10T04:27:02.659Z,1006.28
2023-01-10T04:28:02.627Z,1006.27
2023-01-10T04:29:02.423Z,1006.31
2023-01-10T04:30:02.359Z,1006.37
2023-01-10T04:31:02.666Z,1006.34
2023-01-10T04:32:02.350Z,1006.41
2023-01-10T04:33:02.304Z,1006.32
2023-01-10T04:34:01.821Z,1006.35
2023-01-10T04:35:01.785Z,1006.35
2023-01-10T04:36:02.177Z,1006.38
2023-01-10T04:37:02.189Z,1006.35
2023-01-10T04:38:02.556Z,1006.35
2023-01-10T04:39:02.421Z,1006.35
2023-01-10T04:40:02.224Z,1006.31
2023-01-10T04:41:02.092Z,1006.41
2023-01-10T04:42:02.583Z,1006.41
2023-01-10T04:43:02.652Z,1006.39
2023-01-10T04:44:02.531Z,1006.41
2023-01-10T04:45:02.646Z,1006.45
2023-01-10T04:46:02.535Z,1006.51
2023-01-10T04:47:02.271Z,1006.47
2023-01-10T04:48:02.347Z,1006.43
2023-01-10T04:49:02.567Z,1006.45
2023-01-10T04:50:02.022Z,1006.50
2023-01-10T04:51:02.320Z,1006.52
2023-01-10T04:52:02.253Z,1006.50
2023-01-10T04:53:02.629Z,1006.51
2023-01-10T04:54:02.274Z,1006.55
2023-01-10T04:55:02.821Z,1006.53
2023-01-10T04:56:02.182Z,1006.49
2023-01-10T04:57:02.867Z,1006.48
2023-01-10T04:58:02.758Z,1006.45
2023-01-10T04:59:02.746Z,1006.51
2023-01-10T05:00:02.488Z,1006.52
2023-01-10T05:01:02.438Z,1006.57
2023-01-10T05:02:03.332Z,1006.53
2023-01-10T05:03:02.862Z,1006.50
2023-01-10T05:04:02.969Z,1006.55
2023-01-10T05:05:02.712Z,1006.55
2023-01-10T05:06:03.051Z,1006.53
2023-01-10T05:07:02.634Z,1006.62
2023-01-10T05:08:02.833Z,1006.63
2023-01-10T05:09:02.758Z,1006.63
2023-01-10T05:10:02.522Z,1006.61
2023-01-10T05:11:02.489Z,1006.64
2023-01-10T05:12:02.963Z,1006.64
2023-01-10T05:13:02.909Z,1006.66
2023-01-10T05:14:02.742Z,1006.66
2023-01-10T05:15:02.721Z,1006.72
2023-01-10T05:16:02.926Z,1006.74
2023-01-10T05:17:03.146Z,1006.71
2023-01-10T05:18:03.015Z,1006.71
2023-01-10T05:19:02.826Z,1006.69
2023-01-10T05:20:03.400Z,1006.78
2023-01-10T05:21:03.305Z,1006.85
2023-01-10T05:22:03.732Z,1006.87
2023-01-10T05:23:03.411Z,1006.89
2023-01-10T05:24:03.351Z,1006.90
2023-01-10T05:25:03.907Z,1006.86
2023-01-10T05:26:03.436Z,1006.91
2023-01-10T05:27:03.147Z,1006.92
2023-01-10T05:28:02.998Z,1006.92
2023-01-10T05:29:02.956Z,1006.96
2023-01-10T05:30:03.332Z,1006.94
2023-01-10T05:31:02.776Z,1006.93
2023-01-10T05:32:03.130Z,1006.95
2023-01-10T05:33:02.823Z,1006.95
2023-01-10T05:34:02.509Z,1006.98
2023-01-10T05:35:02.584Z,1007.03
2023-01-10T05:36:02.759Z,1006.97
2023-01-10T05:37:02.777Z,1006.95
2023-01-10T05:38:02.707Z,1006.98
2023-01-10T05:39:02.700Z,1006.96
2023-01-10T05:40:02.730Z,1006.98
2023-01-10T05:41:02.861Z,1006.95
2023-01-10T05:42:02.998Z,1006.91
2023-01-10T05:43:03.045Z,1006.96
2023-01-10T05:44:03.297Z,1006.94
2023-01-10T05:45:02.894Z,1006.92
2023-01-10T05:46:03.193Z,1006.95
2023-01-10T05:47:02.163Z,1006.97
2023-01-10T05:48:02.349Z,1006.96
2023-01-10T05:49:02.573Z,1006.92
2023-01-10T05:50:02.304Z,1006.94
2023-01-10T05:51:02.287Z,1006.98
2023-01-10T05:52:03.364Z,1007.02
2023-01-10T05:53:03.422Z,1007.01
2023-01-10T05:54:02.892Z,1007.09
2023-01-10T05:55:03.325Z,1007.12
2023-01-10T05:56:03.111Z,1007.07
2023-01-10T05:57:02.695Z,1007.14
2023-01-10T05:58:02.371Z,1007.18
2023-01-10T05:59:14.005Z,1007.26
2023-01-10T06:00:04.944Z,1007.34
2023-01-10T06:01:02.443Z,1007.31
2023-01-10T06:02:03.105Z,1007.33
2023-01-10T06:03:03.261Z,1007.35
2023-01-10T06:04:02.654Z,1007.35
2023-01-10T06:05:02.735Z,1007.37
2023-01-10T06:06:03.077Z,1007.34
2023-01-10T06:07:02.435Z,1007.26
2023-01-10T06:08:02.207Z,1007.28
2023-01-10T06:09:02.371Z,1007.31
2023-01-10T06:10:02.379Z,1007.24
2023-01-10T06:11:02.340Z,1007.19
2023-01-10T06:12:02.565Z,1007.12
2023-01-10T06:13:02.683Z,1007.12
2023-01-10T06:14:02.612Z,1007.07
2023-01-10T06:15:03.044Z,1007.12
2023-01-10T06:16:02.607Z,1007.08
2023-01-10T06:17:02.202Z,1007.11
2023-01-10T06:18:02.496Z,1007.17
2023-01-10T06:19:02.595Z,1007.16
2023-01-10T06:20:02.577Z,1007.21
2023-01-10T06:21:02.519Z,1007.31
2023-01-10T06:22:02.659Z,1007.34
2023-01-10T06:23:02.375Z,1007.39
2023-01-10T06:24:02.700Z,1007.46
2023-01-10T06:25:02.718Z,1007.51
2023-01-10T06:26:02.894Z,1007.51
2023-01-10T06:27:02.515Z,1007.57
2023-01-10T06:28:02.088Z,1007.61
2023-01-10T06:29:02.009Z,1007.62
2023-01-10T06:30:02.065Z,1007.62
2023-01-10T06:31:02.340Z,1007.63
2023-01-10T06:32:02.197Z,1007.66
2023-01-10T06:33:02.425Z,1007.75
2023-01-10T06:34:02.252Z,1007.81
2023-01-10T06:35:02.184Z,1007.85
2023-01-10T06:36:02.333Z,1007.90
2023-01-10T06:37:03.020Z,1007.88
2023-01-10T06:38:02.452Z,1007.94
2023-01-10T06:39:02.969Z,1007.92
2023-01-10T06:40:02.477Z,1007.98
2023-01-10T06:41:02.693Z,1007.97
2023-01-10T06:42:02.251Z,1007.94
2023-01-10T06:43:02.331Z,1007.91
2023-01-10T06:44:02.026Z,1007.86
2023-01-10T06:45:02.202Z,1007.91
2023-01-10T06:46:02.130Z,1007.87
2023-01-10T06:47:02.336Z,1007.97
2023-01-10T06:48:01.813Z,1007.99
2023-01-10T06:49:01.947Z,1008.04
2023-01-10T06:50:02.356Z,1008.10
2023-01-10T06:51:01.979Z,1008.10
2023-01-10T06:52:02.069Z,1008.21
2023-01-10T06:53:01.902Z,1008.16
2023-01-10T06:54:02.075Z,1008.17
2023-01-10T06:55:01.956Z,1008.17
2023-01-10T06:56:02.555Z,1008.21
2023-01-10T06:57:02.163Z,1008.24
2023-01-10T06:58:01.995Z,1008.29
2023-01-10T06:59:02.001Z,1008.27
2023-01-10T07:00:02.265Z,1008.26
2023-01-10T07:01:02.156Z,1008.28
2023-01-10T07:02:02.422Z,1008.19
2023-01-10T07:03:02.886Z,1008.19
2023-01-10T07:04:02.473Z,1008.22
2023-01-10T07:05:02.868Z,1008.20
2023-01-10T07:06:02.332Z,1008.24
2023-01-10T07:07:03.405Z,1008.22
2023-01-10T07:08:02.989Z,1008.23
2023-01-10T07:09:03.545Z,1008.26
2023-01-10T07:10:03.079Z,1008.26
2023-01-10T07:11:03.921Z,1008.25
2023-01-10T07:12:02.498Z,1008.27
2023-01-10T07:13:02.409Z,1008.25
2023-01-10T07:14:02.372Z,1008.25
2023-01-10T07:15:02.492Z,1008.31
2023-01-10T07:16:02.743Z,1008.31
2023-01-10T07:17:03.267Z,1008.24
2023-01-10T07:18:03.228Z,1008.28
2023-01-10T07:19:02.780Z,1008.35
2023-01-10T07:20:03.102Z,1008.35
2023-01-10T07:21:03.207Z,1008.31
2023-01-10T07:22:02.905Z,1008.35
2023-01-10T07:23:03.351Z,1008.34
2023-01-10T07:24:03.234Z,1008.32
2023-01-10T07:25:02.785Z,1008.30
2023-01-10T07:26:02.892Z,1008.31
2023-01-10T07:27:02.565Z,1008.36
2023-01-10T07:28:02.413Z,1008.39
2023-01-10T07:29:02.624Z,1008.35
2023-01-10T07:30:02.391Z,1008.47
2023-01-10T07:31:02.575Z,1008.51
2023-01-10T07:32:03.395Z,1008.50
2023-01-10T07:33:03.120Z,1008.44
2023-01-10T07:34:03.329Z,1008.43
2023-01-10T07:35:02.931Z,1008.47
2023-01-10T07:36:03.412Z,1008.48
2023-01-10T07:37:02.416Z,1008.52
2023-01-10T07:38:02.703Z,1008.52
2023-01-10T07:39:02.690Z,1008.55
2023-01-10T07:40:02.435Z,1008.59
2023-01-10T07:41:02.465Z,1008.58
2023-01-10T07:42:02.831Z,1008.55
2023-01-10T07:43:03.220Z,1008.56
2023-01-10T07:44:03.195Z,1008.60
2023-01-10T07:45:02.840Z,1008.63
2023-01-10T07:46:03.093Z,1008.64
2023-01-10T07:47:03.290Z,1008.64
2023-01-10T07:48:02.792Z,1008.66
2023-01-10T07:49:03.058Z,1008.62
2023-01-10T07:50:02.778Z,1008.68
2023-01-10T07:51:03.225Z,1008.66
2023-01-10T07:52:02.625Z,1008.68
2023-01-10T07:53:02.671Z,1008.71
2023-01-10T07:54:02.484Z,1008.73
2023-01-10T07:55:02.405Z,1008.78
2023-01-10T07:56:02.291Z,1008.87
2023-01-10T07:57:02.997Z,1008.90
2023-01-10T07:58:02.597Z,1008.90
2023-01-10T07:59:03.009Z,1008.92
2023-01-10T08:00:02.677Z,1008.91
2023-01-10T08:01:02.845Z,1008.97
2023-01-10T08:02:02.271Z,1008.96
2023-01-10T08:03:02.272Z,1008.98
2023-01-10T08:04:02.151Z,1009.00
2023-01-10T08:05:01.820Z,1009.03
2023-01-10T08:06:02.024Z,1009.06
2023-01-10T08:07:02.356Z,1009.04
2023-01-10T08:08:02.263Z,1009.04
2023-01-10T08:09:02.305Z,1009.13
2023-01-10T08:10:02.698Z,1009.09
2023-01-10T08:11:02.240Z,1009.06
2023-01-10T08:12:02.151Z,1009.08
2023-01-10T08:13:16.978Z,1009.14
2023-01-10T08:14:01.903Z,1009.10
2023-01-10T08:15:02.054Z,1009.19
2023-01-10T08:16:01.814Z,1009.10
2023-01-10T08:17:02.266Z,1009.09
2023-01-10T08:18:04.161Z,1009.10
2023-01-10T08:19:01.979Z,1009.15
2023-01-10T08:20:01.783Z,1009.12
2023-01-10T08:21:01.653Z,1009.18
2023-01-10T08:22:01.787Z,1009.19
2023-01-10T08:23:02.087Z,1009.24
2023-01-10T08:24:02.063Z,1009.23
2023-01-10T08:25:01.947Z,1009.17
2023-01-10T08:26:01.993Z,1009.16
2023-01-10T08:27:02.571Z,1009.14
2023-01-10T08:28:01.897Z,1009.11
2023-01-10T08:29:01.982Z,1009.12
2023-01-10T08:30:02.179Z,1009.14
2023-01-10T08:31:01.981Z,1009.22
2023-01-10T08:32:02.082Z,1009.22
2023-01-10T08:33:01.698Z,1009.26
2023-01-10T08:34:01.699Z,1009.28
2023-01-10T08:35:01.464Z,1009.32
2023-01-10T08:36:02.005Z,1009.29
2023-01-10T08:37:01.935Z,1009.34
2023-01-10T08:38:02.392Z,1009.37
2023-01-10T08:39:01.953Z,1009.30
2023-01-10T08:40:02.281Z,1009.31
2023-01-10T08:41:01.893Z,1009.29
2023-01-10T08:42:01.487Z,1009.32
2023-01-10T08:43:01.992Z,1009.29
2023-01-10T08:44:01.927Z,1009.31
2023-01-10T08:45:01.908Z,1009.34
2023-01-10T08:46:02.082Z,1009.32
2023-01-10T08:47:01.599Z,1009.33
2023-01-10T08:48:01.881Z,1009.38
2023-01-10T08:49:01.686Z,1009.34
2023-01-10T08:50:02.021Z,1009.38
2023-01-10T08:51:02.022Z,1009.35
2023-01-10T08:52:02.369Z,1009.33
2023-01-10T08:53:02.110Z,1009.42
2023-01-10T08:54:01.828Z,1009.39
2023-01-10T08:55:02.151Z,1009.38
2023-01-10T08:56:03.205Z,1009.38
2023-01-10T08:57:01.976Z,1009.39
2023-01-10T08:58:02.231Z,1009.39
2023-01-10T08:59:02.585Z,1009.36
2023-01-10T09:00:02.477Z,1009.39
2023-01-10T09:01:02.294Z,1009.38
2023-01-10T09:02:03.098Z,1009.42
2023-01-10T09:03:03.035Z,1009.40
2023-01-10T09:04:02.936Z,1009.33
2023-01-10T09:05:04.882Z,1009.36
2023-01-10T09:06:03.400Z,1009.47
2023-01-10T09:07:02.498Z,1009.47
2023-01-10T09:08:02.556Z,1009.50
2023-01-10T09:09:02.965Z,1009.49
2023-01-10T09:10:03.006Z,1009.54
2023-01-10T09:11:02.458Z,1009.53
2023-01-10T09:12:02.926Z,1009.51
2023-01-10T09:13:02.667Z,1009.52
2023-01-10T09:14:03.097Z,1009.52
2023-01-10T09:15:02.763Z,1009.49
2023-01-10T09:16:03.180Z,1009.50
2023-01-10T09:17:02.976Z,1009.50
2023-01-10T09:18:02.635Z,1009.52
2023-01-10T09:19:02.948Z,1009.51
2023-01-10T09:20:02.917Z,1009.48
2023-01-10T09:21:02.773Z,1009.54
2023-01-10T09:22:02.738Z,1009.52
2023-01-10T09:23:03.120Z,1009.53
2023-01-10T09:24:02.763Z,1009.51
2023-01-10T09:25:03.282Z,1009.54
2023-01-10T09:26:03.070Z,1009.56
2023-01-10T09:27:03.132Z,1009.52
2023-01-10T09:28:03.668Z,1009.55
2023-01-10T09:29:03.627Z,1009.57
2023-01-10T09:30:03.703Z,1009.59
2023-01-10T09:31:03.201Z,1009.58
2023-01-10T09:32:02.359Z,1009.57
2023-01-10T09:33:02.354Z,1009.60
2023-01-10T09:34:02.910Z,1009.55
2023-01-10T09:35:02.766Z,1009.56
2023-01-10T09:36:02.692Z,1009.53
2023-01-10T09:37:03.065Z,1009.55
2023-01-10T09:38:02.790Z,1009.62
2023-01-10T09:39:02.659Z,1009.58
2023-01-10T09:40:02.840Z,1009.60
2023-01-10T09:41:02.677Z,1009.61
2023-01-10T09:42:02.171Z,1009.64
2023-01-10T09:43:02.635Z,1009.58
2023-01-10T09:44:02.752Z,1009.62
2023-01-10T09:45:02.674Z,1009.68
2023-01-10T09:46:02.181Z,1009.61
2023-01-10T09:47:06.203Z,1009.59
2023-01-10T09:48:02.448Z,1009.63
2023-01-10T09:49:02.728Z,1009.62
2023-01-10T09:50:02.362Z,1009.63
2023-01-10T09:51:02.589Z,1009.64
2023-01-10T09:52:03.148Z,1009.60
2023-01-10T09:53:02.945Z,1009.63
2023-01-10T09:54:11.287Z,1009.61
2023-01-10T09:55:03.798Z,1009.63
2023-01-10T09:56:03.158Z,1009.66
2023-01-10T09:57:02.391Z,1009.63
2023-01-10T09:58:02.199Z,1009.67
2023-01-10T09:59:02.637Z,1009.61
2023-01-10T10:00:02.662Z,1009.64
2023-01-10T10:01:02.779Z,1009.59
2023-01-10T10:02:02.427Z,1009.59
2023-01-10T10:03:02.145Z,1009.63
2023-01-10T10:04:02.239Z,1009.61
2023-01-10T10:05:02.230Z,1009.57
2023-01-10T10:06:11.700Z,1009.59
2023-01-10T10:07:02.920Z,1009.58
2023-01-10T10:08:02.619Z,1009.63
2023-01-10T10:09:04.866Z,1009.60
2023-01-10T10:10:02.937Z,1009.57
2023-01-10T10:11:02.926Z,1009.60
2023-01-10T10:12:02.402Z,1009.65
2023-01-10T10:13:02.272Z,1009.55
2023-01-10T10:14:02.203Z,1009.64
2023-01-10T10:15:02.530Z,1009.63
2023-01-10T10:16:02.301Z,1009.56
2023-01-10T10:17:01.875Z,1009.55
2023-01-10T10:18:02.143Z,1009.55
2023-01-10T10:19:02.115Z,1009.55
2023-01-10T10:20:01.704Z,1009.53
2023-01-10T10:21:01.829Z,1009.50
2023-01-10T10:22:02.640Z,1009.46
2023-01-10T10:23:02.463Z,1009.50
2023-01-10T10:24:02.136Z,1009.45
2023-01-10T10:25:02.153Z,1009.46
2023-01-10T10:26:02.653Z,1009.46
2023-01-10T10:27:02.706Z,1009.44
2023-01-10T10:28:02.330Z,1009.40
2023-01-10T10:29:02.782Z,1009.46
2023-01-10T10:30:02.548Z,1009.41
2023-01-10T10:31:02.926Z,1009.47
2023-01-10T10:32:02.726Z,1009.43
2023-01-10T10:33:02.656Z,1009.38
2023-01-10T10:34:02.453Z,1009.42
2023-01-10T10:35:02.715Z,1009.47
2023-01-10T10:36:02.652Z,1009.44
2023-01-10T10:37:01.728Z,1009.46
2023-01-10T10:38:01.441Z,1009.47
2023-01-10T10:39:01.728Z,1009.35
2023-01-10T10:40:01.796Z,1009.34
2023-01-10T10:41:01.497Z,1009.34
2023-01-10T10:42:02.430Z,1009.35
2023-01-10T10:43:02.277Z,1009.37
2023-01-10T10:44:02.440Z,1009.33
2023-01-10T10:45:02.210Z,1009.38
2023-01-10T10:46:02.502Z,1009.35
2023-01-10T10:47:02.700Z,1009.37
2023-01-10T10:48:02.891Z,1009.31
2023-01-10T10:49:02.351Z,1009.40
2023-01-10T10:50:02.264Z,1009.30
2023-01-10T10:51:02.699Z,1009.30
2023-01-10T10:52:02.258Z,1009.33
2023-01-10T10:53:02.296Z,1009.38
2023-01-10T10:54:01.756Z,1009.37
2023-01-10T10:55:01.814Z,1009.38
2023-01-10T10:56:02.313Z,1009.45
2023-01-10T10:57:02.775Z,1009.41
2023-01-10T10:58:02.403Z,1009.41
2023-01-10T10:59:02.527Z,1009.50
2023-01-10T11:00:02.282Z,1009.47
2023-01-10T11:01:02.542Z,1009.56
2023-01-10T11:02:03.366Z,1009.54
2023-01-10T11:03:02.905Z,1009.51
2023-01-10T11:04:03.415Z,1009.46
2023-01-10T11:05:03.023Z,1009.51
2023-01-10T11:06:03.279Z,1009.45
2023-01-10T11:07:03.059Z,1009.39
2023-01-10T11:08:03.127Z,1009.46
2023-01-10T11:09:03.523Z,1009.34
2023-01-10T11:10:03.534Z,1009.39
2023-01-10T11:11:03.135Z,1009.36
2023-01-10T11:12:02.725Z,1009.36
2023-01-10T11:13:02.794Z,1009.28
2023-01-10T11:14:02.411Z,1009.33
2023-01-10T11:15:02.263Z,1009.23
2023-01-10T11:16:02.793Z,1009.21
2023-01-10T11:17:02.797Z,1009.24
2023-01-10T11:18:02.781Z,1009.25
2023-01-10T11:19:03.394Z,1009.30
2023-01-10T11:20:02.925Z,1009.20
2023-01-10T11:21:02.986Z,1009.17
2023-01-10T11:22:03.392Z,1009.26
2023-01-10T11:23:03.125Z,1009.26
2023-01-10T11:24:02.980Z,1009.16
2023-01-10T11:25:03.150Z,1009.21
2023-01-10T11:26:03.384Z,1009.22
2023-01-10T11:27:03.102Z,1009.17
2023-01-10T11:28:03.119Z,1009.20
2023-01-10T11:29:02.645Z,1009.26
2023-01-10T11:30:02.664Z,1009.21
2023-01-10T11:31:03.039Z,1009.30
2023-01-10T11:32:03.515Z,1009.21
2023-01-10T11:33:03.445Z,1009.24
2023-01-10T11:34:03.215Z,1009.20
2023-01-10T11:35:03.530Z,1009.21
2023-01-10T11:36:03.436Z,1009.17
2023-01-10T11:37:02.044Z,1009.18
2023-01-10T11:38:02.362Z,1009.20
2023-01-10T11:39:02.485Z,1009.15
2023-01-10T11:40:02.061Z,1009.10
2023-01-10T11:41:02.688Z,1009.13
2023-01-10T11:42:02.724Z,1009.08
2023-01-10T11:43:03.289Z,1008.99
2023-01-10T11:44:02.789Z,1009.04
2023-01-10T11:45:03.383Z,1009.00
2023-01-10T11:46:03.258Z,1009.01
2023-01-10T11:47:03.234Z,1009.05
2023-01-10T11:48:02.358Z,1009.04
2023-01-10T11:49:07.831Z,1009.06
2023-01-10T11:50:02.287Z,1009.11
2023-01-10T11:51:02.633Z,1009.09
2023-01-10T11:52:02.571Z,1009.03
2023-01-10T11:53:03.040Z,1009.09
2023-01-10T11:54:03.022Z,1009.04
2023-01-10T11:55:03.084Z,1009.10
2023-01-10T11:56:02.762Z,1009.09
2023-01-10T11:57:03.370Z,1009.05
2023-01-10T11:58:02.885Z,1009.05
2023-01-10T11:59:03.097Z,1009.02
2023-01-10T12:00:02.719Z,1009.04
2023-01-10T12:01:02.676Z,1009.09
2023-01-10T12:02:02.633Z,1009.15
2023-01-10T12:03:02.682Z,1009.09
2023-01-10T12:04:02.167Z,1009.11
2023-01-10T12:05:02.675Z,1009.07